sensor_id;sensor_type;location;lat;lon;timestamp;temperature;humidity
38788;DHT22;24536;45.488;12.238;2023-11-18T00:02:22;11.50;89.40
38788;DHT22;24536;45.488;12.238;2023-11-18T00:04:47;11.50;89.20
38788;DHT22;24536;45.488;12.238;2023-11-18T00:07:13;11.50;89.80
38788;DHT22;24536;45.488;12.238;2023-11-18T00:09:38;11.50;89.60
38788;DHT22;24536;45.488;12.238;2023-11-18T00:12:04;11.50;89.60
38788;DHT22;24536;45.488;12.238;2023-11-18T00:14:30;11.40;89.70
38788;DHT22;24536;45.488;12.238;2023-11-18T00:16:55;11.40;89.80
38788;DHT22;24536;45.488;12.238;2023-11-18T00:19:21;11.40;89.80
38788;DHT22;24536;45.488;12.238;2023-11-18T00:21:46;11.40;89.80
38788;DHT22;24536;45.488;12.238;2023-11-18T00:24:12;11.40;89.80
38788;DHT22;24536;45.488;12.238;2023-11-18T00:26:41;11.40;89.90
38788;DHT22;24536;45.488;12.238;2023-11-18T00:29:07;11.40;90.00
38788;DHT22;24536;45.488;12.238;2023-11-18T00:31:33;11.40;90.10
38788;DHT22;24536;45.488;12.238;2023-11-18T00:33:59;11.40;90.10
38788;DHT22;24536;45.488;12.238;2023-11-18T00:36:24;11.40;90.10
38788;DHT22;24536;45.488;12.238;2023-11-18T00:38:50;11.30;90.10
38788;DHT22;24536;45.488;12.238;2023-11-18T00:41:16;11.40;90.10
38788;DHT22;24536;45.488;12.238;2023-11-18T00:43:42;11.40;90.20
38788;DHT22;24536;45.488;12.238;2023-11-18T00:46:08;11.30;90.10
38788;DHT22;24536;45.488;12.238;2023-11-18T00:48:33;11.30;90.00
38788;DHT22;24536;45.488;12.238;2023-11-18T00:50:59;11.30;89.90
38788;DHT22;24536;45.488;12.238;2023-11-18T00:53:24;11.30;89.70
38788;DHT22;24536;45.488;12.238;2023-11-18T00:55:50;11.20;89.90
38788;DHT22;24536;45.488;12.238;2023-11-18T00:58:15;11.20;90.00
38788;DHT22;24536;45.488;12.238;2023-11-18T01:00:41;11.20;89.80
38788;DHT22;24536;45.488;12.238;2023-11-18T01:03:06;11.10;89.70
38788;DHT22;24536;45.488;12.238;2023-11-18T01:05:33;11.10;90.00
38788;DHT22;24536;45.488;12.238;2023-11-18T01:07:59;11.10;89.90
38788;DHT22;24536;45.488;12.238;2023-11-18T01:10:25;11.10;90.00
38788;DHT22;24536;45.488;12.238;2023-11-18T01:12:50;11.10;90.10
38788;DHT22;24536;45.488;12.238;2023-11-18T01:15:16;11.10;90.10
38788;DHT22;24536;45.488;12.238;2023-11-18T01:20:12;11.10;90.10
38788;DHT22;24536;45.488;12.238;2023-11-18T01:22:38;11.10;90.10
38788;DHT22;24536;45.488;12.238;2023-11-18T01:25:05;11.10;90.00
38788;DHT22;24536;45.488;12.238;2023-11-18T01:27:31;11.10;90.00
38788;DHT22;24536;45.488;12.238;2023-11-18T01:29:59;11.10;90.10
38788;DHT22;24536;45.488;12.238;2023-11-18T01:32:24;11.10;90.20
38788;DHT22;24536;45.488;12.238;2023-11-18T01:34:51;11.10;90.10
38788;DHT22;24536;45.488;12.238;2023-11-18T01:37:16;11.10;90.00
38788;DHT22;24536;45.488;12.238;2023-11-18T01:39:42;11.10;90.00
38788;DHT22;24536;45.488;12.238;2023-11-18T01:42:08;11.10;89.80
38788;DHT22;24536;45.488;12.238;2023-11-18T01:44:33;11.00;89.90
38788;DHT22;24536;45.488;12.238;2023-11-18T01:47:03;11.00;90.10
38788;DHT22;24536;45.488;12.238;2023-11-18T01:49:36;11.00;90.00
38788;DHT22;24536;45.488;12.238;2023-11-18T01:52:05;10.90;89.20
38788;DHT22;24536;45.488;12.238;2023-11-18T01:54:33;11.00;89.50
38788;DHT22;24536;45.488;12.238;2023-11-18T01:56:59;10.80;85.70
38788;DHT22;24536;45.488;12.238;2023-11-18T01:59:27;10.80;87.40
38788;DHT22;24536;45.488;12.238;2023-11-18T02:01:55;10.80;86.40
38788;DHT22;24536;45.488;12.238;2023-11-18T02:04:24;10.80;87.30
38788;DHT22;24536;45.488;12.238;2023-11-18T02:06:50;10.70;87.00
38788;DHT22;24536;45.488;12.238;2023-11-18T02:09:16;10.70;87.40
38788;DHT22;24536;45.488;12.238;2023-11-18T02:14:24;10.70;87.30
38788;DHT22;24536;45.488;12.238;2023-11-18T02:16:51;10.60;87.80
38788;DHT22;24536;45.488;12.238;2023-11-18T02:19:21;10.60;88.00
38788;DHT22;24536;45.488;12.238;2023-11-18T02:21:49;10.60;88.20
38788;DHT22;24536;45.488;12.238;2023-11-18T02:24:25;10.70;88.60
38788;DHT22;24536;45.488;12.238;2023-11-18T02:26:52;10.60;88.60
38788;DHT22;24536;45.488;12.238;2023-11-18T02:29:18;10.60;88.40
38788;DHT22;24536;45.488;12.238;2023-11-18T02:31:43;10.60;88.20
38788;DHT22;24536;45.488;12.238;2023-11-18T02:34:16;10.60;88.00
38788;DHT22;24536;45.488;12.238;2023-11-18T02:36:46;10.60;88.10
38788;DHT22;24536;45.488;12.238;2023-11-18T02:39:23;10.60;88.10
38788;DHT22;24536;45.488;12.238;2023-11-18T02:41:54;10.60;88.20
38788;DHT22;24536;45.488;12.238;2023-11-18T02:44:21;10.60;88.20
38788;DHT22;24536;45.488;12.238;2023-11-18T02:46:48;10.60;88.10
38788;DHT22;24536;45.488;12.238;2023-11-18T02:49:14;10.50;88.10
38788;DHT22;24536;45.488;12.238;2023-11-18T02:51:40;10.50;88.20
38788;DHT22;24536;45.488;12.238;2023-11-18T02:54:06;10.50;88.20
38788;DHT22;24536;45.488;12.238;2023-11-18T02:56:32;10.50;88.00
38788;DHT22;24536;45.488;12.238;2023-11-18T02:58:57;10.40;88.10
38788;DHT22;24536;45.488;12.238;2023-11-18T03:01:23;10.40;88.30
38788;DHT22;24536;45.488;12.238;2023-11-18T03:03:51;10.40;88.40
38788;DHT22;24536;45.488;12.238;2023-11-18T03:06:16;10.40;88.50
38788;DHT22;24536;45.488;12.238;2023-11-18T03:08:42;10.40;88.80
38788;DHT22;24536;45.488;12.238;2023-11-18T03:11:07;10.40;88.50
38788;DHT22;24536;45.488;12.238;2023-11-18T03:13:34;10.40;88.80
38788;DHT22;24536;45.488;12.238;2023-11-18T03:16:00;10.40;88.80
38788;DHT22;24536;45.488;12.238;2023-11-18T03:18:26;10.30;88.80
38788;DHT22;24536;45.488;12.238;2023-11-18T03:20:51;10.30;88.80
38788;DHT22;24536;45.488;12.238;2023-11-18T03:23:17;10.30;88.90
38788;DHT22;24536;45.488;12.238;2023-11-18T03:25:44;10.30;88.90
38788;DHT22;24536;45.488;12.238;2023-11-18T03:28:10;10.30;89.00
38788;DHT22;24536;45.488;12.238;2023-11-18T03:30:35;10.30;89.00
38788;DHT22;24536;45.488;12.238;2023-11-18T03:33:02;10.20;88.80
38788;DHT22;24536;45.488;12.238;2023-11-18T03:35:29;10.20;89.40
38788;DHT22;24536;45.488;12.238;2023-11-18T03:37:55;10.20;89.30
38788;DHT22;24536;45.488;12.238;2023-11-18T03:40:20;10.20;89.70
38788;DHT22;24536;45.488;12.238;2023-11-18T03:42:46;10.10;89.60
38788;DHT22;24536;45.488;12.238;2023-11-18T03:45:11;10.10;89.30
38788;DHT22;24536;45.488;12.238;2023-11-18T03:47:39;10.10;89.30
38788;DHT22;24536;45.488;12.238;2023-11-18T03:50:05;10.20;89.70
38788;DHT22;24536;45.488;12.238;2023-11-18T03:52:30;10.20;89.50
38788;DHT22;24536;45.488;12.238;2023-11-18T03:54:56;10.10;89.10
38788;DHT22;24536;45.488;12.238;2023-11-18T03:57:21;10.10;88.90
38788;DHT22;24536;45.488;12.238;2023-11-18T03:59:47;10.10;89.00
38788;DHT22;24536;45.488;12.238;2023-11-18T04:02:13;10.00;88.70
38788;DHT22;24536;45.488;12.238;2023-11-18T04:04:38;10.00;88.90
38788;DHT22;24536;45.488;12.238;2023-11-18T04:07:04;9.90;89.30
38788;DHT22;24536;45.488;12.238;2023-11-18T04:09:30;10.00;89.60
38788;DHT22;24536;45.488;12.238;2023-11-18T04:11:55;10.00;89.80
38788;DHT22;24536;45.488;12.238;2023-11-18T04:14:21;10.00;89.70
38788;DHT22;24536;45.488;12.238;2023-11-18T04:16:47;10.00;89.50
38788;DHT22;24536;45.488;12.238;2023-11-18T04:19:13;9.90;89.00
38788;DHT22;24536;45.488;12.238;2023-11-18T04:21:38;9.80;89.30
38788;DHT22;24536;45.488;12.238;2023-11-18T04:24:04;9.80;89.50
38788;DHT22;24536;45.488;12.238;2023-11-18T04:26:31;9.70;89.50
38788;DHT22;24536;45.488;12.238;2023-11-18T04:28:57;9.70;89.40
38788;DHT22;24536;45.488;12.238;2023-11-18T04:31:22;9.70;89.40
38788;DHT22;24536;45.488;12.238;2023-11-18T04:33:48;9.60;89.40
38788;DHT22;24536;45.488;12.238;2023-11-18T04:36:14;9.60;89.30
38788;DHT22;24536;45.488;12.238;2023-11-18T04:38:41;9.60;89.20
38788;DHT22;24536;45.488;12.238;2023-11-18T04:41:07;9.50;89.20
38788;DHT22;24536;45.488;12.238;2023-11-18T04:43:33;9.50;89.10
38788;DHT22;24536;45.488;12.238;2023-11-18T04:45:59;9.50;88.80
38788;DHT22;24536;45.488;12.238;2023-11-18T04:48:24;9.60;88.50
38788;DHT22;24536;45.488;12.238;2023-11-18T04:50:50;9.60;88.60
38788;DHT22;24536;45.488;12.238;2023-11-18T04:53:15;9.60;88.00
38788;DHT22;24536;45.488;12.238;2023-11-18T04:55:41;9.60;88.10
38788;DHT22;24536;45.488;12.238;2023-11-18T04:58:06;9.60;87.70
38788;DHT22;24536;45.488;12.238;2023-11-18T05:00:33;9.60;87.90
38788;DHT22;24536;45.488;12.238;2023-11-18T05:02:58;9.60;88.30
38788;DHT22;24536;45.488;12.238;2023-11-18T05:05:24;9.60;88.00
38788;DHT22;24536;45.488;12.238;2023-11-18T05:07:49;9.60;88.00
38788;DHT22;24536;45.488;12.238;2023-11-18T05:10:15;9.70;88.20
38788;DHT22;24536;45.488;12.238;2023-11-18T05:12:40;9.70;88.30
38788;DHT22;24536;45.488;12.238;2023-11-18T05:15:09;9.70;88.10
38788;DHT22;24536;45.488;12.238;2023-11-18T05:17:38;9.60;87.50
38788;DHT22;24536;45.488;12.238;2023-11-18T05:20:04;9.60;87.70
38788;DHT22;24536;45.488;12.238;2023-11-18T05:22:30;9.60;87.70
38788;DHT22;24536;45.488;12.238;2023-11-18T05:24:57;9.60;87.70
38788;DHT22;24536;45.488;12.238;2023-11-18T05:27:23;9.60;87.80
38788;DHT22;24536;45.488;12.238;2023-11-18T05:29:48;9.60;86.50
38788;DHT22;24536;45.488;12.238;2023-11-18T05:32:20;9.60;86.80
38788;DHT22;24536;45.488;12.238;2023-11-18T05:34:46;9.50;86.80
38788;DHT22;24536;45.488;12.238;2023-11-18T05:37:11;9.50;86.60
38788;DHT22;24536;45.488;12.238;2023-11-18T05:39:37;9.50;86.70
38788;DHT22;24536;45.488;12.238;2023-11-18T05:42:08;9.40;86.90
38788;DHT22;24536;45.488;12.238;2023-11-18T05:44:36;9.30;87.00
38788;DHT22;24536;45.488;12.238;2023-11-18T05:47:03;9.20;87.20
38788;DHT22;24536;45.488;12.238;2023-11-18T05:49:29;9.20;87.30
38788;DHT22;24536;45.488;12.238;2023-11-18T05:51:54;9.20;87.80
38788;DHT22;24536;45.488;12.238;2023-11-18T05:54:20;9.30;87.80
38788;DHT22;24536;45.488;12.238;2023-11-18T05:56:45;9.30;87.70
38788;DHT22;24536;45.488;12.238;2023-11-18T05:59:11;9.30;88.00
38788;DHT22;24536;45.488;12.238;2023-11-18T06:01:38;9.40;87.70
38788;DHT22;24536;45.488;12.238;2023-11-18T06:04:04;9.40;86.40
38788;DHT22;24536;45.488;12.238;2023-11-18T06:06:33;9.40;85.50
38788;DHT22;24536;45.488;12.238;2023-11-18T06:08:59;9.40;85.40
38788;DHT22;24536;45.488;12.238;2023-11-18T06:11:30;9.40;85.70
38788;DHT22;24536;45.488;12.238;2023-11-18T06:13:57;9.40;86.20
38788;DHT22;24536;45.488;12.238;2023-11-18T06:16:23;9.40;85.90
38788;DHT22;24536;45.488;12.238;2023-11-18T06:18:55;9.40;85.90
38788;DHT22;24536;45.488;12.238;2023-11-18T06:21:22;9.40;86.00
38788;DHT22;24536;45.488;12.238;2023-11-18T06:23:53;9.40;85.60
38788;DHT22;24536;45.488;12.238;2023-11-18T06:26:20;9.40;86.00
38788;DHT22;24536;45.488;12.238;2023-11-18T06:28:47;9.50;85.60
38788;DHT22;24536;45.488;12.238;2023-11-18T06:31:14;9.40;85.30
38788;DHT22;24536;45.488;12.238;2023-11-18T06:33:40;9.40;85.60
38788;DHT22;24536;45.488;12.238;2023-11-18T06:38:40;9.40;85.10
38788;DHT22;24536;45.488;12.238;2023-11-18T06:41:06;9.40;85.10
38788;DHT22;24536;45.488;12.238;2023-11-18T06:43:37;9.40;84.90
38788;DHT22;24536;45.488;12.238;2023-11-18T06:46:21;9.40;84.90
38788;DHT22;24536;45.488;12.238;2023-11-18T06:48:48;9.40;85.00
38788;DHT22;24536;45.488;12.238;2023-11-18T06:51:15;9.50;85.30
38788;DHT22;24536;45.488;12.238;2023-11-18T06:53:41;9.50;85.00
38788;DHT22;24536;45.488;12.238;2023-11-18T06:56:07;9.50;84.60
38788;DHT22;24536;45.488;12.238;2023-11-18T06:58:32;9.50;84.60
38788;DHT22;24536;45.488;12.238;2023-11-18T07:00:59;9.40;84.80
38788;DHT22;24536;45.488;12.238;2023-11-18T07:03:24;9.30;85.00
38788;DHT22;24536;45.488;12.238;2023-11-18T07:05:50;9.30;85.30
38788;DHT22;24536;45.488;12.238;2023-11-18T07:08:15;9.20;85.40
38788;DHT22;24536;45.488;12.238;2023-11-18T07:10:41;9.20;85.60
38788;DHT22;24536;45.488;12.238;2023-11-18T07:13:06;9.20;87.80
38788;DHT22;24536;45.488;12.238;2023-11-18T07:15:36;9.20;86.20
38788;DHT22;24536;45.488;12.238;2023-11-18T07:18:02;9.20;85.80
38788;DHT22;24536;45.488;12.238;2023-11-18T07:20:27;9.20;85.90
38788;DHT22;24536;45.488;12.238;2023-11-18T07:22:53;9.20;86.10
38788;DHT22;24536;45.488;12.238;2023-11-18T07:25:19;9.20;86.00
38788;DHT22;24536;45.488;12.238;2023-11-18T07:27:45;9.10;86.30
38788;DHT22;24536;45.488;12.238;2023-11-18T07:30:10;9.10;86.80
38788;DHT22;24536;45.488;12.238;2023-11-18T07:32:36;9.10;87.00
38788;DHT22;24536;45.488;12.238;2023-11-18T07:35:02;9.10;87.20
38788;DHT22;24536;45.488;12.238;2023-11-18T07:37:28;9.10;86.90
38788;DHT22;24536;45.488;12.238;2023-11-18T07:39:58;9.10;86.70
38788;DHT22;24536;45.488;12.238;2023-11-18T07:42:26;9.20;86.60
38788;DHT22;24536;45.488;12.238;2023-11-18T07:44:51;9.30;86.40
38788;DHT22;24536;45.488;12.238;2023-11-18T07:47:17;9.40;85.20
38788;DHT22;24536;45.488;12.238;2023-11-18T07:49:44;9.40;84.80
38788;DHT22;24536;45.488;12.238;2023-11-18T07:52:11;9.40;85.10
38788;DHT22;24536;45.488;12.238;2023-11-18T07:54:36;9.40;85.30
38788;DHT22;24536;45.488;12.238;2023-11-18T07:57:03;9.50;85.10
38788;DHT22;24536;45.488;12.238;2023-11-18T07:59:29;9.60;84.80
38788;DHT22;24536;45.488;12.238;2023-11-18T08:01:57;9.70;84.10
38788;DHT22;24536;45.488;12.238;2023-11-18T08:04:23;9.80;84.60
38788;DHT22;24536;45.488;12.238;2023-11-18T08:06:49;9.80;84.20
38788;DHT22;24536;45.488;12.238;2023-11-18T08:09:14;9.90;83.80
38788;DHT22;24536;45.488;12.238;2023-11-18T08:11:47;9.90;83.90
38788;DHT22;24536;45.488;12.238;2023-11-18T08:14:14;10.00;84.00
38788;DHT22;24536;45.488;12.238;2023-11-18T08:16:40;10.10;84.00
38788;DHT22;24536;45.488;12.238;2023-11-18T08:19:05;10.30;82.90
38788;DHT22;24536;45.488;12.238;2023-11-18T08:21:34;10.30;82.10
38788;DHT22;24536;45.488;12.238;2023-11-18T08:23:59;10.40;82.00
38788;DHT22;24536;45.488;12.238;2023-11-18T08:26:25;10.50;82.80
38788;DHT22;24536;45.488;12.238;2023-11-18T08:28:51;10.60;81.50
38788;DHT22;24536;45.488;12.238;2023-11-18T08:31:17;10.70;81.50
38788;DHT22;24536;45.488;12.238;2023-11-18T08:33:43;10.80;81.10
38788;DHT22;24536;45.488;12.238;2023-11-18T08:36:08;10.90;80.70
38788;DHT22;24536;45.488;12.238;2023-11-18T08:38:34;11.00;79.30
38788;DHT22;24536;45.488;12.238;2023-11-18T08:41:01;11.10;78.70
38788;DHT22;24536;45.488;12.238;2023-11-18T08:43:26;11.20;80.40
38788;DHT22;24536;45.488;12.238;2023-11-18T08:45:54;11.20;79.00
38788;DHT22;24536;45.488;12.238;2023-11-18T08:48:21;11.20;78.90
38788;DHT22;24536;45.488;12.238;2023-11-18T08:50:48;11.20;78.60
38788;DHT22;24536;45.488;12.238;2023-11-18T08:53:14;11.20;78.60
38788;DHT22;24536;45.488;12.238;2023-11-18T08:55:44;11.20;79.90
38788;DHT22;24536;45.488;12.238;2023-11-18T08:58:22;11.30;79.40
38788;DHT22;24536;45.488;12.238;2023-11-18T09:00:51;11.50;80.30
38788;DHT22;24536;45.488;12.238;2023-11-18T09:05:59;11.70;78.30
38788;DHT22;24536;45.488;12.238;2023-11-18T09:08:38;11.80;79.20
38788;DHT22;24536;45.488;12.238;2023-11-18T09:11:05;11.90;79.10
38788;DHT22;24536;45.488;12.238;2023-11-18T09:13:31;12.00;78.30
38788;DHT22;24536;45.488;12.238;2023-11-18T09:15:57;12.00;76.30
38788;DHT22;24536;45.488;12.238;2023-11-18T09:18:25;12.00;76.00
38788;DHT22;24536;45.488;12.238;2023-11-18T09:20:53;12.00;77.50
38788;DHT22;24536;45.488;12.238;2023-11-18T09:23:20;12.10;77.20
38788;DHT22;24536;45.488;12.238;2023-11-18T09:25:46;12.20;76.90
38788;DHT22;24536;45.488;12.238;2023-11-18T09:28:15;12.30;77.10
38788;DHT22;24536;45.488;12.238;2023-11-18T09:30:41;12.40;76.30
38788;DHT22;24536;45.488;12.238;2023-11-18T09:33:16;12.50;76.20
38788;DHT22;24536;45.488;12.238;2023-11-18T09:35:51;12.60;75.80
38788;DHT22;24536;45.488;12.238;2023-11-18T09:38:17;12.70;76.40
38788;DHT22;24536;45.488;12.238;2023-11-18T09:40:43;12.80;73.90
38788;DHT22;24536;45.488;12.238;2023-11-18T09:43:11;12.90;75.70
38788;DHT22;24536;45.488;12.238;2023-11-18T09:45:39;13.10;75.50
38788;DHT22;24536;45.488;12.238;2023-11-18T09:48:05;13.20;74.90
38788;DHT22;24536;45.488;12.238;2023-11-18T09:50:32;13.20;73.00
38788;DHT22;24536;45.488;12.238;2023-11-18T09:52:58;13.20;73.20
38788;DHT22;24536;45.488;12.238;2023-11-18T09:55:32;13.40;74.80
38788;DHT22;24536;45.488;12.238;2023-11-18T09:58:04;13.50;74.80
38788;DHT22;24536;45.488;12.238;2023-11-18T10:00:34;13.70;72.90
38788;DHT22;24536;45.488;12.238;2023-11-18T10:03:05;13.70;73.80
38788;DHT22;24536;45.488;12.238;2023-11-18T10:05:33;13.90;72.50
38788;DHT22;24536;45.488;12.238;2023-11-18T10:08:04;14.00;73.60
38788;DHT22;24536;45.488;12.238;2023-11-18T10:10:33;14.20;74.00
38788;DHT22;24536;45.488;12.238;2023-11-18T10:13:01;14.50;74.70
38788;DHT22;24536;45.488;12.238;2023-11-18T10:15:29;14.70;72.20
38788;DHT22;24536;45.488;12.238;2023-11-18T10:17:56;14.90;71.50
38788;DHT22;24536;45.488;12.238;2023-11-18T10:23:07;15.20;74.50
38788;DHT22;24536;45.488;12.238;2023-11-18T10:25:44;15.40;73.90
38788;DHT22;24536;45.488;12.238;2023-11-18T10:28:20;15.50;73.10
38788;DHT22;24536;45.488;12.238;2023-11-18T10:30:46;15.70;72.70
38788;DHT22;24536;45.488;12.238;2023-11-18T10:33:14;15.80;71.70
38788;DHT22;24536;45.488;12.238;2023-11-18T10:35:39;16.00;71.90
38788;DHT22;24536;45.488;12.238;2023-11-18T10:38:13;16.10;72.20
38788;DHT22;24536;45.488;12.238;2023-11-18T10:40:41;16.30;72.20
38788;DHT22;24536;45.488;12.238;2023-11-18T10:43:08;16.50;71.80
38788;DHT22;24536;45.488;12.238;2023-11-18T10:45:37;16.50;70.50
38788;DHT22;24536;45.488;12.238;2023-11-18T10:48:06;16.70;69.50
38788;DHT22;24536;45.488;12.238;2023-11-18T10:50:32;16.80;67.10
38788;DHT22;24536;45.488;12.238;2023-11-18T10:53:00;16.90;67.60
38788;DHT22;24536;45.488;12.238;2023-11-18T10:55:36;16.90;63.40
38788;DHT22;24536;45.488;12.238;2023-11-18T10:58:02;16.90;65.90
38788;DHT22;24536;45.488;12.238;2023-11-18T11:00:50;17.00;66.80
38788;DHT22;24536;45.488;12.238;2023-11-18T11:03:16;17.20;67.10
38788;DHT22;24536;45.488;12.238;2023-11-18T11:05:43;17.40;63.50
38788;DHT22;24536;45.488;12.238;2023-11-18T11:08:13;17.50;64.70
38788;DHT22;24536;45.488;12.238;2023-11-18T11:10:42;17.60;64.20
38788;DHT22;24536;45.488;12.238;2023-11-18T11:13:09;17.70;64.30
38788;DHT22;24536;45.488;12.238;2023-11-18T11:15:36;17.80;64.40
38788;DHT22;24536;45.488;12.238;2023-11-18T11:18:05;17.80;63.00
38788;DHT22;24536;45.488;12.238;2023-11-18T11:20:47;17.90;61.70
38788;DHT22;24536;45.488;12.238;2023-11-18T11:26:23;18.10;63.00
38788;DHT22;24536;45.488;12.238;2023-11-18T11:28:58;18.30;61.70
38788;DHT22;24536;45.488;12.238;2023-11-18T11:31:32;18.70;62.20
38788;DHT22;24536;45.488;12.238;2023-11-18T11:34:06;19.60;61.10
38788;DHT22;24536;45.488;12.238;2023-11-18T11:36:42;20.70;59.70
38788;DHT22;24536;45.488;12.238;2023-11-18T11:39:08;21.90;53.60
38788;DHT22;24536;45.488;12.238;2023-11-18T11:41:43;22.90;54.10
38788;DHT22;24536;45.488;12.238;2023-11-18T11:44:11;23.80;48.10
38788;DHT22;24536;45.488;12.238;2023-11-18T11:46:38;24.30;50.10
38788;DHT22;24536;45.488;12.238;2023-11-18T11:49:08;24.80;45.40
38788;DHT22;24536;45.488;12.238;2023-11-18T11:51:49;25.30;46.30
38788;DHT22;24536;45.488;12.238;2023-11-18T11:56:46;26.50;46.80
38788;DHT22;24536;45.488;12.238;2023-11-18T11:59:15;26.80;46.60
38788;DHT22;24536;45.488;12.238;2023-11-18T12:01:41;27.20;45.60
38788;DHT22;24536;45.488;12.238;2023-11-18T12:04:12;27.50;45.10
38788;DHT22;24536;45.488;12.238;2023-11-18T12:06:46;27.80;44.30
38788;DHT22;24536;45.488;12.238;2023-11-18T12:09:16;28.10;44.30
38788;DHT22;24536;45.488;12.238;2023-11-18T12:11:45;28.20;43.00
38788;DHT22;24536;45.488;12.238;2023-11-18T12:14:14;28.30;41.80
38788;DHT22;24536;45.488;12.238;2023-11-18T12:17:05;28.10;41.40
38788;DHT22;24536;45.488;12.238;2023-11-18T12:19:39;27.80;41.20
38788;DHT22;24536;45.488;12.238;2023-11-18T12:22:20;27.60;41.40
38788;DHT22;24536;45.488;12.238;2023-11-18T12:35:24;25.60;43.10
38788;DHT22;24536;45.488;12.238;2023-11-18T12:40:53;25.40;42.90
38788;DHT22;24536;45.488;12.238;2023-11-18T12:43:47;25.40;43.50
38788;DHT22;24536;45.488;12.238;2023-11-18T12:48:42;25.60;42.70
38788;DHT22;24536;45.488;12.238;2023-11-18T12:51:09;25.70;42.20
38788;DHT22;24536;45.488;12.238;2023-11-18T12:53:47;25.70;41.60
38788;DHT22;24536;45.488;12.238;2023-11-18T12:56:15;25.50;41.30
38788;DHT22;24536;45.488;12.238;2023-11-18T12:58:40;25.20;40.40
38788;DHT22;24536;45.488;12.238;2023-11-18T13:01:06;24.80;40.70
38788;DHT22;24536;45.488;12.238;2023-11-18T13:03:31;24.40;41.30
38788;DHT22;24536;45.488;12.238;2023-11-18T13:05:59;23.90;40.40
38788;DHT22;24536;45.488;12.238;2023-11-18T13:08:25;23.30;41.80
38788;DHT22;24536;45.488;12.238;2023-11-18T13:10:52;22.80;42.30
38788;DHT22;24536;45.488;12.238;2023-11-18T13:13:17;22.40;43.40
38788;DHT22;24536;45.488;12.238;2023-11-18T13:15:46;22.00;45.80
38788;DHT22;24536;45.488;12.238;2023-11-18T13:18:11;21.70;45.50
38788;DHT22;24536;45.488;12.238;2023-11-18T13:20:37;21.40;45.90
38788;DHT22;24536;45.488;12.238;2023-11-18T13:23:08;21.10;47.80
38788;DHT22;24536;45.488;12.238;2023-11-18T13:25:34;20.80;48.30
38788;DHT22;24536;45.488;12.238;2023-11-18T13:28:00;20.60;47.90
38788;DHT22;24536;45.488;12.238;2023-11-18T13:30:27;20.40;48.00
38788;DHT22;24536;45.488;12.238;2023-11-18T13:32:54;20.10;47.40
38788;DHT22;24536;45.488;12.238;2023-11-18T13:35:20;19.90;45.60
38788;DHT22;24536;45.488;12.238;2023-11-18T13:37:49;19.60;47.10
38788;DHT22;24536;45.488;12.238;2023-11-18T13:40:15;19.40;47.00
38788;DHT22;24536;45.488;12.238;2023-11-18T13:42:43;19.40;47.90
38788;DHT22;24536;45.488;12.238;2023-11-18T13:45:12;19.30;49.70
38788;DHT22;24536;45.488;12.238;2023-11-18T13:47:41;19.20;50.20
38788;DHT22;24536;45.488;12.238;2023-11-18T13:50:08;19.10;50.20
38788;DHT22;24536;45.488;12.238;2023-11-18T13:52:34;19.00;50.20
38788;DHT22;24536;45.488;12.238;2023-11-18T13:55:00;18.90;50.70
38788;DHT22;24536;45.488;12.238;2023-11-18T13:57:25;18.80;50.80
38788;DHT22;24536;45.488;12.238;2023-11-18T13:59:51;18.70;50.70
38788;DHT22;24536;45.488;12.238;2023-11-18T14:02:17;18.60;51.00
38788;DHT22;24536;45.488;12.238;2023-11-18T14:04:43;18.40;50.50
38788;DHT22;24536;45.488;12.238;2023-11-18T14:07:09;18.20;50.90
38788;DHT22;24536;45.488;12.238;2023-11-18T14:09:35;18.20;50.80
38788;DHT22;24536;45.488;12.238;2023-11-18T14:12:02;18.10;51.60
38788;DHT22;24536;45.488;12.238;2023-11-18T14:14:28;18.00;52.20
38788;DHT22;24536;45.488;12.238;2023-11-18T14:16:54;17.90;52.60
38788;DHT22;24536;45.488;12.238;2023-11-18T14:19:23;17.90;51.80
38788;DHT22;24536;45.488;12.238;2023-11-18T14:21:50;17.80;52.50
38788;DHT22;24536;45.488;12.238;2023-11-18T14:24:16;17.80;52.30
38788;DHT22;24536;45.488;12.238;2023-11-18T14:26:46;17.70;53.60
38788;DHT22;24536;45.488;12.238;2023-11-18T14:29:12;17.60;53.80
38788;DHT22;24536;45.488;12.238;2023-11-18T14:31:37;17.60;53.80
38788;DHT22;24536;45.488;12.238;2023-11-18T14:34:03;17.50;54.40
38788;DHT22;24536;45.488;12.238;2023-11-18T14:36:29;17.50;55.10
38788;DHT22;24536;45.488;12.238;2023-11-18T14:38:55;17.40;55.90
38788;DHT22;24536;45.488;12.238;2023-11-18T14:41:20;17.40;57.10
38788;DHT22;24536;45.488;12.238;2023-11-18T14:43:50;17.30;57.00
38788;DHT22;24536;45.488;12.238;2023-11-18T14:46:16;17.20;56.70
38788;DHT22;24536;45.488;12.238;2023-11-18T14:48:41;17.20;56.80
38788;DHT22;24536;45.488;12.238;2023-11-18T14:51:07;17.10;57.30
38788;DHT22;24536;45.488;12.238;2023-11-18T14:53:33;17.00;58.00
38788;DHT22;24536;45.488;12.238;2023-11-18T14:56:01;17.00;59.40
38788;DHT22;24536;45.488;12.238;2023-11-18T14:58:30;16.80;60.20
38788;DHT22;24536;45.488;12.238;2023-11-18T15:00:55;16.80;61.20
38788;DHT22;24536;45.488;12.238;2023-11-18T15:03:22;16.70;62.00
38788;DHT22;24536;45.488;12.238;2023-11-18T15:05:48;16.60;62.90
38788;DHT22;24536;45.488;12.238;2023-11-18T15:08:13;16.50;63.10
38788;DHT22;24536;45.488;12.238;2023-11-18T15:10:41;16.40;63.40
38788;DHT22;24536;45.488;12.238;2023-11-18T15:13:09;16.40;64.20
38788;DHT22;24536;45.488;12.238;2023-11-18T15:15:40;16.30;65.00
38788;DHT22;24536;45.488;12.238;2023-11-18T15:18:06;16.20;65.00
38788;DHT22;24536;45.488;12.238;2023-11-18T15:20:39;16.10;64.70
38788;DHT22;24536;45.488;12.238;2023-11-18T15:23:08;16.00;65.30
38788;DHT22;24536;45.488;12.238;2023-11-18T15:25:34;16.00;65.40
38788;DHT22;24536;45.488;12.238;2023-11-18T15:27:59;15.90;65.90
38788;DHT22;24536;45.488;12.238;2023-11-18T15:30:26;15.80;66.80
38788;DHT22;24536;45.488;12.238;2023-11-18T15:32:52;15.70;67.30
38788;DHT22;24536;45.488;12.238;2023-11-18T15:35:18;15.70;67.80
38788;DHT22;24536;45.488;12.238;2023-11-18T15:37:46;15.60;68.20
38788;DHT22;24536;45.488;12.238;2023-11-18T15:40:13;15.50;68.50
38788;DHT22;24536;45.488;12.238;2023-11-18T15:42:42;15.40;68.90
38788;DHT22;24536;45.488;12.238;2023-11-18T15:45:10;15.40;69.80
38788;DHT22;24536;45.488;12.238;2023-11-18T15:47:37;15.30;70.60
38788;DHT22;24536;45.488;12.238;2023-11-18T15:50:03;15.30;71.20
38788;DHT22;24536;45.488;12.238;2023-11-18T15:52:29;15.20;71.50
38788;DHT22;24536;45.488;12.238;2023-11-18T15:54:55;15.20;71.90
38788;DHT22;24536;45.488;12.238;2023-11-18T15:57:20;15.10;72.10